Time;durP1;ratioP1;P1;durP2;ratioP2;P2;SDS_P1;SDS_P2;PMS_P1;PMS_P2;Temp;Humidity;BMP_temperature;BMP_pressure;BME280_temperature;BME280_humidity;BME280_pressure;Samples;Min_cycle;Max_cycle;Signal;HPM_P1;HPM_P2
2022/01/02 00:00:09;;;;;;;12.07;6.60;;;;;;;3.40;92.64;98071.19;5031235;28;20072;-60
2022/01/02 00:02:37;;;;;;;10.93;6.15;;;;;;;3.31;92.83;98067.78;5027203;28;20045;-60
2022/01/02 00:05:08;;;;;;;11.40;6.35;;;;;;;3.26;92.99;98056.81;5026336;28;20045;-60
2022/01/02 00:07:41;;;;;;;10.98;5.82;;;;;;;3.29;93.08;98052.91;5008051;28;20038;-60
2022/01/02 00:10:09;;;;;;;12.80;6.18;;;;;;;3.38;93.09;98055.31;5008163;28;20046;-60
2022/01/02 00:12:38;;;;;;;9.35;5.57;;;;;;;3.40;92.78;98056.97;5007693;28;20050;-60
2022/01/02 00:15:07;;;;;;;10.38;5.78;;;;;;;3.48;92.89;98051.50;5020586;28;20053;-60
2022/01/02 00:17:33;;;;;;;12.90;6.57;;;;;;;3.60;92.46;98046.44;5043804;28;20045;-60
2022/01/02 00:20:10;;;;;;;11.43;6.05;;;;;;;3.63;92.12;98048.75;5038819;28;20037;-59
2022/01/02 00:22:40;;;;;;;12.48;7.40;;;;;;;3.50;92.26;98042.25;5027348;28;20053;-60
2022/01/02 00:25:24;;;;;;;11.65;6.68;;;;;;;3.42;92.91;98036.19;5025360;28;20040;-60
2022/01/02 00:27:52;;;;;;;11.40;5.80;;;;;;;3.60;93.20;98041.94;5027534;28;20041;-60
2022/01/02 00:30:19;;;;;;;12.15;7.85;;;;;;;3.79;92.73;98041.50;5025884;28;20048;-60
2022/01/02 00:32:45;;;;;;;10.90;7.22;;;;;;;3.62;92.24;98033.72;5027015;28;20512;-59
2022/01/02 00:35:12;;;;;;;13.90;7.93;;;;;;;3.46;92.44;98024.91;5027426;28;20072;-60
2022/01/02 00:37:42;;;;;;;12.05;7.85;;;;;;;3.40;92.94;98024.81;5026834;28;20045;-60
2022/01/02 00:40:09;;;;;;;12.30;6.90;;;;;;;3.38;92.64;98028.53;5027224;28;20559;-60
2022/01/02 00:42:39;;;;;;;11.05;6.93;;;;;;;3.33;93.06;98022.91;5026851;28;20049;-60
2022/01/02 00:45:07;;;;;;;11.98;7.40;;;;;;;3.29;92.87;98023.47;5026364;28;20057;-61
2022/01/02 00:47:37;;;;;;;14.82;8.73;;;;;;;3.15;92.90;98020.66;5026931;28;20068;-60
2022/01/02 00:50:14;;;;;;;12.00;6.78;;;;;;;3.05;92.62;98014.75;5026001;28;20412;-60
2022/01/02 00:52:46;;;;;;;11.48;5.95;;;;;;;2.97;92.64;98005.84;5026747;28;20049;-60
2022/01/02 00:55:14;;;;;;;12.32;5.70;;;;;;;2.95;92.83;98005.19;5021197;28;20041;-60
2022/01/02 00:57:42;;;;;;;9.30;5.03;;;;;;;3.01;92.21;98011.63;5041676;28;20132;-60
2022/01/02 01:00:13;;;;;;;9.38;5.70;;;;;;;2.82;92.71;98008.53;5023799;28;20064;-60
2022/01/02 01:02:46;;;;;;;10.93;6.23;;;;;;;2.70;93.15;98005.47;5022033;28;20579;-60
2022/01/02 01:05:26;;;;;;;13.35;7.03;;;;;;;2.67;93.72;97999.69;5023278;28;20049;-60
2022/01/02 01:07:55;;;;;;;11.32;6.47;;;;;;;2.72;93.91;97998.13;5025649;28;20409;-60
2022/01/02 01:10:23;;;;;;;12.65;7.03;;;;;;;2.73;93.88;98004.31;5026622;28;20041;-61
2022/01/02 01:12:53;;;;;;;10.43;6.43;;;;;;;2.76;93.97;97995.88;5024779;28;20049;-60
2022/01/02 01:15:27;;;;;;;12.70;7.05;;;;;;;2.78;93.84;97987.69;5024002;28;20045;-60
2022/01/02 01:17:56;;;;;;;13.30;7.68;;;;;;;2.79;94.14;97990.16;5025509;28;20052;-60
2022/01/02 01:20:25;;;;;;;13.60;6.85;;;;;;;2.70;93.50;97988.63;5024190;28;20575;-60
2022/01/02 01:22:53;;;;;;;12.02;7.45;;;;;;;2.74;93.55;97997.94;5041434;28;20107;-60
2022/01/02 01:25:21;;;;;;;12.20;6.75;;;;;;;2.75;93.38;97991.56;5025621;28;20045;-60
2022/01/02 01:27:51;;;;;;;11.88;6.70;;;;;;;2.70;93.58;97985.94;5022501;28;20038;-60
2022/01/02 01:30:21;;;;;;;11.13;6.80;;;;;;;2.68;93.62;97978.09;5025751;28;20056;-60
2022/01/02 01:32:47;;;;;;;9.90;5.88;;;;;;;2.69;93.81;97981.63;5024028;28;20045;-60
2022/01/02 01:35:15;;;;;;;9.95;6.30;;;;;;;2.65;93.59;97970.44;5026528;28;20068;-60
2022/01/02 01:37:43;;;;;;;11.98;7.00;;;;;;;2.67;94.05;97975.63;5024572;28;20662;-60
2022/01/02 01:40:15;;;;;;;12.67;6.83;;;;;;;2.73;94.56;97974.88;5025784;28;20120;-61
2022/01/02 01:42:54;;;;;;;11.85;6.35;;;;;;;2.67;94.46;97978.28;5023971;28;20057;-60
2022/01/02 01:47:56;;;;;;;8.43;4.80;;;;;;;2.70;94.41;97969.91;5025634;28;20120;-61
2022/01/02 01:50:26;;;;;;;11.25;5.30;;;;;;;2.77;94.01;97983.34;5025402;28;20040;-61
2022/01/02 01:52:54;;;;;;;9.73;4.88;;;;;;;2.75;93.26;97972.84;5024227;28;20065;-60
2022/01/02 01:55:22;;;;;;;11.25;5.00;;;;;;;2.84;92.79;97973.56;5041317;28;20501;-60
2022/01/02 01:57:51;;;;;;;8.77;4.85;;;;;;;2.96;91.61;97972.06;5037964;28;20483;-60
2022/01/02 02:00:21;;;;;;;11.00;5.28;;;;;;;2.81;90.52;97982.81;5023341;28;20512;-60
2022/01/02 02:02:55;;;;;;;6.78;4.30;;;;;;;2.55;91.78;97978.75;5024462;28;20057;-59
2022/01/02 02:05:22;;;;;;;8.00;4.68;;;;;;;2.40;92.53;97970.72;5029989;28;20057;-59
2022/01/02 02:07:50;;;;;;;8.93;5.45;;;;;;;2.34;93.47;97963.47;5016009;28;20133;-60
2022/01/02 02:10:26;;;;;;;8.30;4.80;;;;;;;2.32;93.73;97960.97;5023070;28;20042;-59
2022/01/02 02:12:58;;;;;;;9.65;5.07;;;;;;;2.46;94.07;97953.13;5024659;28;20136;-60
2022/01/02 02:15:27;;;;;;;12.80;5.00;;;;;;;2.56;93.79;97944.84;5021648;28;20055;-60
2022/01/02 02:17:54;;;;;;;10.45;5.00;;;;;;;2.67;93.00;97935.50;5036918;28;20057;-60
2022/01/02 02:20:23;;;;;;;9.43;4.75;;;;;;;2.60;92.57;97940.78;5043878;28;20037;-61
2022/01/02 02:22:53;;;;;;;8.50;5.10;;;;;;;2.52;92.88;97933.69;5037863;28;20045;-60
2022/01/02 02:25:22;;;;;;;9.23;5.03;;;;;;;2.49;92.76;97933.22;5043077;28;20049;-60
2022/01/02 02:27:55;;;;;;;8.45;4.75;;;;;;;2.40;92.83;97930.63;5022413;28;20045;-60
2022/01/02 02:30:24;;;;;;;10.45;5.18;;;;;;;2.51;93.83;97925.84;5024460;28;20038;-60
2022/01/02 02:32:53;;;;;;;8.75;5.25;;;;;;;2.39;93.01;97918.28;5024187;28;20111;-60
2022/01/02 02:35:21;;;;;;;7.88;4.45;;;;;;;2.49;93.68;97911.81;5024804;28;20083;-60
2022/01/02 02:37:48;;;;;;;7.70;4.22;;;;;;;2.46;93.29;97921.91;5023441;28;20140;-60
2022/01/02 02:40:19;;;;;;;7.50;4.22;;;;;;;2.46;93.52;97915.72;5023470;28;20088;-61
2022/01/02 02:42:57;;;;;;;8.45;4.32;;;;;;;2.45;93.68;97906.88;5024400;28;20116;-60
2022/01/02 02:51:26;;;;;;;6.97;3.90;;;;;;;2.70;92.42;97885.13;5022349;28;20129;-60
2022/01/02 02:53:53;;;;;;;9.82;4.50;;;;;;;2.66;92.30;97883.06;5028243;28;20445;-61
2022/01/02 02:56:40;;;;;;;7.90;3.88;;;;;;;2.61;92.69;97878.25;5030453;28;20508;-60
2022/01/02 02:59:08;;;;;;;7.78;3.80;;;;;;;2.64;92.83;97887.75;5047124;28;20049;-60
2022/01/02 03:01:35;;;;;;;6.50;3.80;;;;;;;2.63;92.71;97883.41;5032838;28;20038;-59
2022/01/02 03:04:02;;;;;;;6.25;3.50;;;;;;;2.68;93.09;97872.97;5026951;28;20038;-60
2022/01/02 03:06:29;;;;;;;7.78;3.50;;;;;;;2.75;92.88;97878.41;5027364;28;20048;-61
2022/01/02 03:09:03;;;;;;;7.40;3.83;;;;;;;2.76;92.84;97883.56;5027415;28;20041;-60
2022/01/02 03:11:30;;;;;;;7.13;3.70;;;;;;;2.82;92.91;97879.31;5031229;28;20090;-61
2022/01/02 03:13:56;;;;;;;8.73;4.55;;;;;;;3.08;91.94;97868.06;5034353;28;20082;-61
2022/01/02 03:16:23;;;;;;;7.30;4.00;;;;;;;3.27;90.02;97870.28;5026490;28;20140;-60
2022/01/02 03:18:50;;;;;;;7.28;3.42;;;;;;;3.27;90.05;97865.75;5027067;28;20514;-61
2022/01/02 03:21:17;;;;;;;6.65;3.55;;;;;;;3.29;90.35;97865.56;5025983;28;20140;-60
2022/01/02 03:23:44;;;;;;;7.18;3.53;;;;;;;3.40;90.61;97857.00;5027868;28;20064;-60
2022/01/02 03:26:10;;;;;;;7.45;3.85;;;;;;;3.56;90.22;97855.91;5028052;28;20041;-58
2022/01/02 03:28:38;;;;;;;6.97;3.55;;;;;;;3.68;89.70;97858.03;5026521;28;20107;-60
2022/01/02 03:31:04;;;;;;;6.90;3.67;;;;;;;3.71;89.43;97855.78;5027838;28;20052;-60
2022/01/02 03:33:34;;;;;;;5.80;3.22;;;;;;;3.79;89.27;97852.13;5042026;28;20037;-60
2022/01/02 03:36:02;;;;;;;6.82;3.47;;;;;;;3.79;89.26;97845.97;5038257;28;20631;-61
2022/01/02 03:38:35;;;;;;;6.13;3.65;;;;;;;3.80;89.02;97845.78;5026713;28;20059;-60
2022/01/02 03:41:01;;;;;;;5.65;3.50;;;;;;;3.71;89.08;97833.53;5026298;28;20133;-61
2022/01/02 03:43:28;;;;;;;7.45;4.03;;;;;;;3.73;89.16;97847.56;5027379;28;20112;-60
2022/01/02 03:45:55;;;;;;;7.13;3.60;;;;;;;3.88;88.82;97844.78;5027425;28;20103;-60
2022/01/02 03:48:22;;;;;;;7.03;3.38;;;;;;;3.92;88.40;97832.63;5016612;28;20045;-60
2022/01/02 03:50:49;;;;;;;5.47;2.72;;;;;;;3.90;88.22;97826.63;5026334;28;20550;-60
2022/01/02 03:53:16;;;;;;;6.43;3.47;;;;;;;3.70;88.10;97831.88;5025137;28;20834;-59
2022/01/02 03:55:43;;;;;;;8.75;3.58;;;;;;;3.58;88.49;97821.69;5027700;28;20084;-60
2022/01/02 03:58:12;;;;;;;7.00;3.63;;;;;;;3.35;88.97;97821.94;5038561;28;20049;-59
2022/01/02 04:00:38;;;;;;;7.05;3.50;;;;;;;3.27;89.70;97816.75;5027461;28;20689;-60
2022/01/02 04:03:06;;;;;;;7.40;3.38;;;;;;;3.29;89.59;97822.72;5026513;28;20041;-60
2022/01/02 04:05:33;;;;;;;7.55;3.67;;;;;;;3.29;89.33;97818.22;5025507;28;20045;-59
2022/01/02 04:07:59;;;;;;;5.95;3.20;;;;;;;3.14;89.28;97812.13;5009217;28;20168;-59
2022/01/02 04:10:27;;;;;;;6.88;4.20;;;;;;;2.97;89.80;97817.72;5033896;28;20045;-60
2022/01/02 04:12:54;;;;;;;8.05;4.65;;;;;;;2.90;90.22;97815.00;5042446;28;20088;-61
2022/01/02 04:15:21;;;;;;;6.22;3.60;;;;;;;2.83;90.52;97816.78;5027281;28;20037;-60
2022/01/02 04:17:48;;;;;;;8.27;4.13;;;;;;;2.79;90.80;97820.84;5026430;28;20037;-60
2022/01/02 04:20:15;;;;;;;7.75;4.30;;;;;;;2.91;nan;97816.66;5026624;28;20103;-61
2022/01/02 04:22:43;;;;;;;7.90;4.15;;;;;;;2.90;90.59;97812.31;5025594;28;20056;-60
2022/01/02 04:25:12;;;;;;;9.80;4.60;;;;;;;2.90;90.64;97804.28;5025259;28;20065;-60
2022/01/02 04:27:40;;;;;;;6.70;3.67;;;;;;;2.88;90.56;97803.69;5025232;28;20056;-60
2022/01/02 04:30:10;;;;;;;8.77;4.45;;;;;;;2.83;90.45;97796.22;5026681;28;20548;-61
2022/01/02 04:32:38;;;;;;;;;;;;;;;2.92;90.47;97796.09;5027584;28;20457;-60
2022/01/02 04:35:06;;;;;;;6.38;3.83;;;;;;;3.01;89.78;97796.75;5025268;28;20553;-61
2022/01/02 04:37:34;;;;;;;5.28;3.25;;;;;;;3.07;89.45;97790.66;5024780;28;20041;-60
2022/01/02 04:40:02;;;;;;;5.88;3.45;;;;;;;3.05;90.14;97784.66;5025113;28;20046;-61
2022/01/02 04:42:30;;;;;;;5.70;3.42;;;;;;;3.13;89.83;97787.19;5025406;28;20033;-61
2022/01/02 04:44:56;;;;;;;6.72;3.40;;;;;;;3.19;89.78;97790.94;5026390;28;20041;-60
2022/01/02 04:47:23;;;;;;;6.05;3.35;;;;;;;3.10;89.49;97787.59;5024469;28;20132;-60
2022/01/02 04:49:50;;;;;;;8.05;3.50;;;;;;;3.12;89.78;97783.72;5025393;28;20095;-60
2022/01/02 04:52:18;;;;;;;5.22;2.85;;;;;;;3.27;90.30;97781.97;5024457;28;20512;-60
2022/01/02 04:54:44;;;;;;;8.38;3.10;;;;;;;3.16;89.59;97788.69;5025562;28;20571;-60
2022/01/02 04:57:11;;;;;;;5.28;3.17;;;;;;;3.07;89.85;97775.44;5026712;28;20042;-60
2022/01/02 04:59:38;;;;;;;6.47;3.40;;;;;;;3.21;89.67;97781.69;5024091;28;20091;-60
2022/01/02 05:02:05;;;;;;;7.95;3.22;;;;;;;3.45;88.72;97776.09;5026473;28;20053;-60
2022/01/02 05:04:32;;;;;;;6.38;2.80;;;;;;;3.40;88.63;97774.03;5025517;28;20168;-60
2022/01/02 05:06:59;;;;;;;6.68;3.03;;;;;;;3.27;89.37;97769.41;5024886;28;20049;-58
2022/01/02 05:09:27;;;;;;;9.55;3.58;;;;;;;3.39;89.19;97769.66;5026084;28;20140;-59
2022/01/02 05:11:54;;;;;;;5.97;3.67;;;;;;;3.53;88.65;97753.72;5024573;28;20037;-59
2022/01/02 05:14:21;;;;;;;5.18;2.80;;;;;;;3.63;88.13;97749.66;5024196;28;20065;-59
2022/01/02 05:16:48;;;;;;;10.55;3.58;;;;;;;3.63;88.12;97746.16;5023993;28;20057;-60
2022/01/02 05:19:15;;;;;;;5.05;2.58;;;;;;;3.60;88.78;97752.72;5024282;28;20052;-60
2022/01/02 05:21:41;;;;;;;5.40;2.55;;;;;;;3.66;88.27;97740.41;5026267;28;20049;-60
2022/01/02 05:24:09;;;;;;;7.40;3.10;;;;;;;3.65;88.11;97736.06;5024932;28;20533;-60
2022/01/02 05:26:36;;;;;;;5.97;3.30;;;;;;;3.58;88.46;97740.56;5024945;28;20068;-60
2022/01/02 05:29:03;;;;;;;7.28;3.28;;;;;;;3.55;88.78;97731.06;5023731;28;20456;-60
2022/01/02 05:31:30;;;;;;;6.15;3.40;;;;;;;3.57;88.77;97734.38;5025301;28;20106;-60
2022/01/02 05:33:58;;;;;;;6.65;3.13;;;;;;;3.64;88.65;97726.38;5024802;28;20042;-60
2022/01/02 05:36:26;;;;;;;5.30;2.70;;;;;;;3.73;88.07;97724.34;5025985;28;20045;-60
2022/01/02 05:38:53;;;;;;;4.07;2.00;;;;;;;3.75;88.06;97720.47;5024720;28;20053;-60
2022/01/02 05:41:20;;;;;;;4.55;2.47;;;;;;;3.79;87.72;97726.22;5024268;28;20040;-60
2022/01/02 05:43:48;;;;;;;5.22;3.05;;;;;;;3.83;87.57;97718.63;5024748;28;20176;-60
2022/01/02 05:46:16;;;;;;;7.22;2.60;;;;;;;3.88;87.20;97722.34;5025792;28;20477;-60
2022/01/02 05:48:43;;;;;;;4.53;2.50;;;;;;;3.89;87.36;97726.69;5024332;28;20045;-60
2022/01/02 05:51:10;;;;;;;6.53;2.80;;;;;;;3.78;87.83;97721.91;5024441;28;20037;-61
2022/01/02 05:53:38;;;;;;;6.30;2.58;;;;;;;3.73;88.34;97719.00;5023285;28;20060;-60
2022/01/02 05:56:05;;;;;;;5.60;3.30;;;;;;;3.72;88.22;97712.00;5025501;28;20045;-60
2022/01/02 05:58:34;;;;;;;6.93;3.45;;;;;;;3.73;88.22;97714.47;5035968;28;20529;-60
2022/01/02 06:01:01;;;;;;;5.88;2.85;;;;;;;3.81;88.01;97716.16;5040984;28;20119;-59
2022/01/02 06:03:28;;;;;;;5.32;3.13;;;;;;;3.84;87.96;97710.38;5023799;28;20042;-59
2022/01/02 06:05:55;;;;;;;6.18;2.72;;;;;;;3.92;87.51;97711.25;5026292;28;20048;-60
2022/01/02 06:08:22;;;;;;;4.57;2.30;;;;;;;3.99;87.30;97707.56;5023984;28;20059;-60
2022/01/02 06:10:49;;;;;;;5.68;2.50;;;;;;;4.01;87.31;97707.34;5023321;28;20041;-60
2022/01/02 06:13:16;;;;;;;4.75;2.30;;;;;;;4.05;87.18;97700.56;5024856;28;20041;-60
2022/01/02 06:15:43;;;;;;;4.78;2.50;;;;;;;4.16;86.92;97697.31;5025381;28;20037;-60
2022/01/02 06:18:09;;;;;;;6.35;2.42;;;;;;;4.42;85.80;97693.03;5024520;28;20053;-60
2022/01/02 06:20:37;;;;;;;5.53;2.50;;;;;;;4.45;85.45;97691.78;5025360;28;20160;-61
2022/01/02 06:23:03;;;;;;;4.38;2.10;;;;;;;4.55;85.26;97689.53;5024067;28;20810;-60
2022/01/02 06:25:30;;;;;;;4.78;2.20;;;;;;;4.64;85.09;97694.72;5025788;28;20041;-60
2022/01/02 06:27:57;;;;;;;3.50;1.77;;;;;;;4.77;84.81;97696.56;5025792;28;20072;-60
2022/01/02 06:30:24;;;;;;;4.80;1.90;;;;;;;4.93;83.96;97701.50;5028178;28;20747;-60
2022/01/02 06:32:55;;;;;;;4.35;1.90;;;;;;;5.02;83.56;97701.28;5026879;28;20073;-60
2022/01/02 06:35:24;;;;;;;;;;;;;;;4.87;84.12;97704.19;5027912;28;20076;-60
2022/01/02 06:37:52;;;;;;;4.53;2.03;;;;;;;4.72;84.69;97696.34;5027528;28;19925;-60
2022/01/02 06:40:21;;;;;;;6.70;1.83;;;;;;;4.75;84.52;97695.94;4999846;28;20057;-60
2022/01/02 06:42:48;;;;;;;4.85;2.03;;;;;;;4.84;84.12;97692.03;5008083;28;20108;-60
2022/01/02 06:45:15;;;;;;;6.28;1.75;;;;;;;4.95;83.51;97691.38;5025599;28;20097;-58
2022/01/02 06:47:42;;;;;;;3.85;1.85;;;;;;;5.12;82.79;97690.16;5026946;28;20065;-58
2022/01/02 06:50:12;;;;;;;3.47;1.83;;;;;;;5.14;82.42;97694.25;5026160;28;20119;-58
2022/01/02 06:52:39;;;;;;;4.78;1.95;;;;;;;5.21;82.22;97680.84;5029165;28;20046;-59
2022/01/02 06:55:07;;;;;;;3.47;1.30;;;;;;;5.27;81.73;97676.47;5028145;28;20042;-60
2022/01/02 06:57:34;;;;;;;4.90;1.92;;;;;;;5.40;81.27;97680.97;5036256;28;20041;-59
2022/01/02 07:00:01;;;;;;;4.05;1.67;;;;;;;5.48;80.95;97678.06;5048444;28;20041;-61
2022/01/02 07:02:27;;;;;;;3.53;1.73;;;;;;;5.55;80.25;97684.25;5032205;28;20088;-60
2022/01/02 07:04:54;;;;;;;4.18;1.70;;;;;;;5.57;80.49;97679.47;5007509;28;20050;-60
2022/01/02 07:07:21;;;;;;;5.60;1.75;;;;;;;5.44;81.14;97671.47;5026140;28;20037;-60
2022/01/02 07:09:48;;;;;;;4.43;1.95;;;;;;;5.42;81.13;97676.25;5043568;28;20145;-60
2022/01/02 07:12:14;;;;;;;4.00;1.98;;;;;;;5.38;81.30;97667.75;5028166;28;20100;-60
2022/01/02 07:14:41;;;;;;;4.50;2.22;;;;;;;5.39;81.47;97666.75;5028123;28;20437;-60
2022/01/02 07:17:08;;;;;;;3.65;1.83;;;;;;;5.32;81.43;97661.41;5028349;28;20056;-60
2022/01/02 07:19:34;;;;;;;3.70;1.83;;;;;;;5.44;81.09;97658.03;5021420;28;20042;-60
2022/01/02 07:22:01;;;;;;;3.35;1.80;;;;;;;5.58;80.63;97651.59;5006746;28;20064;-60
2022/01/02 07:24:28;;;;;;;6.38;2.50;;;;;;;5.56;80.72;97658.19;5018655;28;20072;-61
2022/01/02 07:26:54;;;;;;;5.97;2.35;;;;;;;5.44;81.29;97660.72;5026227;28;20045;-59
2022/01/02 07:29:21;;;;;;;3.53;1.95;;;;;;;5.36;81.77;97658.28;5025571;28;20103;-60
2022/01/02 07:31:48;;;;;;;5.30;2.60;;;;;;;5.28;82.17;97667.38;5027756;28;20041;-60
2022/01/02 07:34:14;;;;;;;3.75;1.30;;;;;;;5.31;81.60;97664.28;5025890;28;20052;-59
2022/01/02 07:36:44;;;;;;;3.42;1.63;;;;;;;5.42;80.86;97671.69;5025200;28;20072;-60
2022/01/02 07:39:13;;;;;;;3.60;1.73;;;;;;;5.51;80.71;97674.13;5017403;28;20076;-60
2022/01/02 07:41:41;;;;;;;3.78;1.67;;;;;;;5.53;80.64;97672.06;5021223;28;20044;-60
2022/01/02 07:44:08;;;;;;;4.90;2.05;;;;;;;5.46;80.83;97675.59;5021300;28;20488;-61
2022/01/02 07:46:34;;;;;;;4.65;1.80;;;;;;;5.54;80.15;97669.19;5017158;28;20045;-60
2022/01/02 07:49:01;;;;;;;4.40;1.95;;;;;;;5.61;80.04;97669.16;5018515;28;20044;-60
2022/01/02 07:51:28;;;;;;;3.55;1.85;;;;;;;5.59;80.46;97673.91;5026517;28;20056;-59
2022/01/02 07:53:55;;;;;;;4.20;1.80;;;;;;;5.52;80.64;97673.09;5024134;28;20721;-57
2022/01/02 07:56:21;;;;;;;4.05;2.03;;;;;;;5.55;80.81;97667.31;5043543;28;20055;-55
2022/01/02 07:58:48;;;;;;;3.65;1.77;;;;;;;5.67;80.01;97667.44;5032660;28;20049;-55
2022/01/02 08:01:14;;;;;;;3.42;1.50;;;;;;;5.71;79.90;97671.38;5029964;28;20705;-57
2022/01/02 08:03:41;;;;;;;3.30;1.55;;;;;;;5.80;79.52;97669.28;5026053;28;20069;-51
2022/01/02 08:06:08;;;;;;;4.07;1.83;;;;;;;5.81;79.35;97677.13;5029812;28;20504;-53
2022/01/02 08:08:34;;;;;;;4.28;2.20;;;;;;;5.81;80.38;97673.59;5032863;28;20045;-52
2022/01/02 08:11:01;;;;;;;7.53;3.30;;;;;;;5.82;81.01;97677.97;5027683;28;20042;-52
2022/01/02 08:13:27;;;;;;;5.45;2.78;;;;;;;5.84;80.66;97679.41;5025069;28;20524;-55
2022/01/02 08:15:54;;;;;;;6.80;2.90;;;;;;;5.70;81.08;97672.41;5025329;28;20064;-54
2022/01/02 08:18:21;;;;;;;4.93;1.92;;;;;;;5.56;82.41;97668.94;5024808;28;20049;-52
2022/01/02 08:20:48;;;;;;;5.40;2.83;;;;;;;5.54;83.35;97671.88;5024722;28;20492;-53
2022/01/02 08:23:15;;;;;;;5.70;2.10;;;;;;;5.48;83.70;97675.38;5023960;28;20053;-62
2022/01/02 08:25:42;;;;;;;6.50;2.83;;;;;;;5.54;83.43;97677.25;5038372;28;20049;-63
2022/01/02 08:28:09;;;;;;;9.05;3.67;;;;;;;5.50;83.41;97673.31;5025494;28;20050;-63
2022/01/02 08:30:35;;;;;;;8.48;2.83;;;;;;;5.40;83.44;97665.72;5031182;28;20059;-64
2022/01/02 08:33:02;;;;;;;6.25;3.58;;;;;;;5.48;83.24;97667.31;5036790;28;20815;-63
2022/01/02 08:35:28;;;;;;;5.15;2.92;;;;;;;5.52;82.80;97667.72;5028870;28;20052;-63
2022/01/02 08:37:55;;;;;;;7.20;3.55;;;;;;;5.51;82.77;97674.13;5025224;28;20045;-63
2022/01/02 08:40:21;;;;;;;6.72;3.30;;;;;;;5.58;82.73;97677.63;5023285;28;20486;-62
2022/01/02 08:42:48;;;;;;;5.85;3.15;;;;;;;5.64;84.17;97667.91;5024738;28;20037;-63
2022/01/02 08:45:15;;;;;;;8.90;4.07;;;;;;;5.57;83.86;97660.69;5024996;28;20053;-62
2022/01/02 08:47:43;;;;;;;8.45;4.55;;;;;;;5.57;83.72;97663.38;5023897;28;20508;-62
2022/01/02 08:50:10;;;;;;;8.15;3.58;;;;;;;5.71;83.48;97668.69;5023704;28;20053;-63
2022/01/02 08:52:36;;;;;;;7.45;3.80;;;;;;;5.67;83.83;97673.66;5024597;28;20044;-63
2022/01/02 08:55:04;;;;;;;6.95;4.20;;;;;;;5.67;83.49;97679.03;5023073;28;20041;-62
2022/01/02 08:57:31;;;;;;;6.55;3.08;;;;;;;5.63;84.29;97680.50;5027469;28;20049;-63
2022/01/02 08:59:57;;;;;;;7.15;3.95;;;;;;;5.58;84.77;97686.53;5023477;28;20055;-63
2022/01/02 09:02:24;;;;;;;8.98;3.78;;;;;;;5.59;85.13;97679.28;5023740;28;20050;-63
2022/01/02 09:04:51;;;;;;;7.82;4.32;;;;;;;5.61;85.05;97671.84;5020634;28;20041;-63
2022/01/02 09:07:17;;;;;;;8.25;4.20;;;;;;;5.64;85.61;97676.75;5034621;28;20055;-63
2022/01/02 09:09:44;;;;;;;7.68;5.15;;;;;;;5.67;84.98;97678.19;5026417;28;20041;-63
2022/01/02 09:12:12;;;;;;;7.90;5.22;;;;;;;5.75;85.19;97669.91;5023815;28;20045;-63
2022/01/02 09:14:39;;;;;;;8.20;4.65;;;;;;;5.84;85.45;97663.28;5023562;28;20046;-63
2022/01/02 09:17:05;;;;;;;8.57;5.38;;;;;;;5.97;84.61;97673.13;5023673;28;20060;-63
2022/01/02 09:19:32;;;;;;;9.77;6.18;;;;;;;6.09;83.91;97669.78;5024422;28;20501;-63
2022/01/02 09:21:59;;;;;;;8.48;5.88;;;;;;;6.19;84.49;97667.44;5022976;28;20056;-63
2022/01/02 09:24:26;;;;;;;7.47;4.95;;;;;;;6.26;84.50;97670.09;5024126;28;20744;-63
2022/01/02 09:26:52;;;;;;;13.00;6.93;;;;;;;6.31;83.67;97672.13;5023529;28;20051;-63
2022/01/02 09:29:19;;;;;;;9.63;6.28;;;;;;;6.43;83.31;97680.31;5023212;28;20048;-63
2022/01/02 09:31:50;;;;;;;11.75;8.57;;;;;;;6.57;83.42;97684.59;5023123;28;20033;-63
2022/01/02 09:34:17;;;;;;;10.77;6.22;;;;;;;6.64;83.16;97692.63;5024541;28;20057;-62
2022/01/02 09:36:43;;;;;;;13.32;8.70;;;;;;;6.54;84.14;97695.78;5028116;28;20041;-62
2022/01/02 09:39:10;;;;;;;9.55;4.95;;;;;;;6.64;82.68;97688.03;5033213;28;20053;-63
2022/01/02 09:41:39;;;;;;;5.47;2.40;;;;;;;6.97;78.30;97690.69;5026674;28;20033;-63
2022/01/02 09:44:05;;;;;;;6.55;2.47;;;;;;;7.41;76.44;97679.91;5020476;28;20052;-63
2022/01/02 09:46:33;;;;;;;3.10;1.48;;;;;;;7.86;71.99;97681.47;5017372;28;20496;-63
2022/01/02 09:49:01;;;;;;;2.60;1.33;;;;;;;8.16;71.13;97675.28;5031692;28;20065;-65
2022/01/02 09:51:28;;;;;;;3.78;1.30;;;;;;;8.42;70.19;97672.41;5022543;28;20072;-64
2022/01/02 09:53:55;;;;;;;2.95;1.50;;;;;;;8.64;68.19;97667.34;5032195;28;20088;-64
2022/01/02 09:56:23;;;;;;;3.45;1.40;;;;;;;8.79;68.98;97671.44;5019745;28;20045;-63
2022/01/02 09:58:50;;;;;;;3.33;1.52;;;;;;;8.85;67.34;97665.13;5023454;28;20119;-64
2022/01/02 10:01:22;;;;;;;5.05;1.60;;;;;;;8.84;66.96;97660.78;5020211;28;20052;-63
2022/01/02 10:03:51;;;;;;;4.25;1.90;;;;;;;8.75;67.41;97670.28;5026249;28;20049;-62
2022/01/02 10:06:18;;;;;;;6.13;2.60;;;;;;;8.73;67.32;97664.28;5027192;28;20049;-63
2022/01/02 10:08:46;;;;;;;13.68;6.55;;;;;;;8.76;67.31;97647.59;5027012;28;20045;-61
2022/01/02 10:11:25;;;;;;;3.88;1.60;;;;;;;8.75;69.03;97659.47;5025762;28;20056;-63
2022/01/02 10:13:52;;;;;;;5.60;2.20;;;;;;;8.75;69.23;97664.88;5028700;28;20053;-65
2022/01/02 10:16:33;;;;;;;18.13;8.60;;;;;;;8.51;70.27;97671.03;5037623;28;20045;-64
2022/01/02 10:19:17;;;;;;;3.65;1.50;;;;;;;8.62;71.16;97658.63;5027717;28;20124;-63
2022/01/02 10:22:04;;;;;;;2.53;1.38;;;;;;;8.58;70.99;97650.19;5026037;28;20665;-63
2022/01/02 10:24:42;;;;;;;5.88;1.67;;;;;;;8.55;72.76;97639.84;5026237;28;20175;-64
2022/01/02 10:27:14;;;;;;;4.95;2.20;;;;;;;8.66;75.39;97640.91;5025712;28;20072;-61
2022/01/02 10:29:47;;;;;;;4.28;1.70;;;;;;;8.56;74.65;97621.78;5022715;28;20061;-62
2022/01/02 10:32:30;;;;;;;20.67;13.73;;;;;;;8.38;73.67;97618.09;5026613;28;20041;-63
2022/01/02 10:35:13;;;;;;;8.90;4.60;;;;;;;8.41;73.45;97601.41;5030894;28;20037;-62
2022/01/02 10:37:43;;;;;;;6.07;2.60;;;;;;;8.67;70.50;97590.47;5023168;28;20068;-63
2022/01/02 10:40:26;;;;;;;4.25;2.00;;;;;;;8.85;69.24;97584.13;5026148;28;20049;-63
2022/01/02 10:42:54;;;;;;;3.97;1.90;;;;;;;9.01;69.67;97588.00;5024266;28;20033;-61
2022/01/02 10:45:38;;;;;;;4.82;2.55;;;;;;;9.03;70.93;97591.25;5020078;28;20676;-62
2022/01/02 10:48:09;;;;;;;7.38;3.55;;;;;;;9.05;71.56;97596.44;5018896;28;20041;-61
2022/01/02 10:50:37;;;;;;;5.60;2.80;;;;;;;9.16;71.76;97606.41;5020702;28;20048;-62
2022/01/02 10:53:16;;;;;;;5.00;2.50;;;;;;;9.16;70.30;97606.41;5018211;28;20037;-63
2022/01/02 10:55:45;;;;;;;7.47;2.75;;;;;;;9.11;72.75;97609.81;5017906;28;20045;-62
2022/01/02 10:58:13;;;;;;;4.65;2.22;;;;;;;9.19;71.49;97616.75;5029143;28;20048;-61
2022/01/02 11:00:40;;;;;;;5.93;2.10;;;;;;;9.32;70.61;97620.25;5027911;28;20045;-63
2022/01/02 11:03:07;;;;;;;3.22;1.35;;;;;;;9.62;65.61;97624.66;5029341;28;20045;-61
2022/01/02 11:05:37;;;;;;;4.50;1.50;;;;;;;9.81;65.10;97614.50;5028798;28;20531;-66
2022/01/02 11:08:05;;;;;;;6.07;1.88;;;;;;;9.89;65.84;97618.69;5026148;28;20052;-62
2022/01/02 11:10:35;;;;;;;6.38;2.20;;;;;;;9.92;65.14;97618.19;5025846;28;20037;-63
2022/01/02 11:13:04;;;;;;;6.18;2.00;;;;;;;10.06;65.42;97617.91;5025376;28;20786;-63
2022/01/02 11:15:31;;;;;;;5.85;2.45;;;;;;;10.11;64.03;97609.88;5025578;28;20075;-61
2022/01/02 11:17:58;;;;;;;3.25;1.67;;;;;;;10.09;64.48;97612.00;5024955;28;20091;-62
2022/01/02 11:20:28;;;;;;;3.90;1.88;;;;;;;10.18;62.85;97599.72;5026069;28;20103;-65
2022/01/02 11:23:25;;;;;;;4.25;1.83;;;;;;;10.30;62.83;97613.19;5026062;28;20048;-63
2022/01/02 11:26:20;;;;;;;3.55;1.77;;;;;;;10.45;62.32;97606.41;5014427;28;20468;-64
2022/01/02 11:29:06;;;;;;;4.38;2.20;;;;;;;10.41;62.65;97596.06;5026355;28;20041;-62
2022/01/02 11:31:39;;;;;;;4.10;2.13;;;;;;;10.48;62.45;97587.81;5025641;28;20171;-63
2022/01/02 11:34:23;;;;;;;3.33;1.67;;;;;;;10.56;62.02;97588.44;5026539;28;20051;-64
2022/01/02 11:36:52;;;;;;;8.40;2.20;;;;;;;10.55;62.06;97593.06;5038612;28;20532;-65
2022/01/02 11:39:19;;;;;;;3.88;1.52;;;;;;;10.57;61.65;97596.31;5030731;28;20064;-66
2022/01/02 11:41:50;;;;;;;2.90;1.40;;;;;;;10.78;59.01;97608.31;5025973;28;20261;-67
2022/01/02 11:44:21;;;;;;;3.90;1.65;;;;;;;11.06;57.89;97613.88;5025760;28;20053;-64
2022/01/02 11:46:51;;;;;;;7.65;4.22;;;;;;;11.27;56.30;97611.41;5025911;28;20048;-64
2022/01/02 11:49:36;;;;;;;7.50;3.25;;;;;;;11.50;55.11;97612.28;5022961;28;20128;-64
2022/01/02 11:52:08;;;;;;;3.58;1.50;;;;;;;11.56;55.71;97598.53;5023416;28;20037;-66
2022/01/02 11:54:46;;;;;;;3.80;1.52;;;;;;;11.66;54.87;97583.44;5024555;28;20056;-66
2022/01/02 11:57:18;;;;;;;2.83;1.27;;;;;;;11.67;54.60;97576.94;5035499;28;20045;-65